Amatorska stacja pogodowa orzepowice24.pl
Bogaty zestaw statystyk w zakładce „DOKŁADNE STATYSTYKI”

Visit our other weather sites:

Template documentation
and downloads

SZCZEGÓŁOWE STATYSTYKI

weather34-X5


You find our weather info also at:

UK Metoffice

WeatherCloud

Weather Underground

AWEKAS

WeatherlinkIP

Citizen Weather Observer Program (CWOP)

HAMweather, WeatherForYou, PWS Weather


No particular awareness of the weather is required.    There are no Weather-warnings

Raporty METAR w pobliżu

   
EPKT - Katowice
Zaktualizowano: 18-02-2018 00:00
Mgła, Niewiele chmur  
Mgła, Niewiele chmur  
   Wiatr: Północ 5.6 km/h
Wiatr: Północ 5.6 km/h
Temperatura: -2°C
Wind Chill: -4°C
Punkt rosy: -3°C
Wilgotność: 93%
Ciśnienie: 1021 hPa
Zachmurzenie: Niewiele chmur
Widoczność: 5 km
Szczegóły dotyczące chmur: Niewiele chmur 4000 ft
EPKT 172300Z 36003KT 4800 BR FEW040 M02/M03 Q1021
EPKK - Kraków
Zaktualizowano: 18-02-2018 00:00
Mgła, W większości pochmurnie  
Mgła, W większości pochmurnie  
   Wiatr: varies 1.9 km/h
Wiatr: varies 1.9 km/h
Temperatura: -1°C
Punkt rosy: -2°C
Wilgotność: 93%
Ciśnienie: 1021 hPa
Zachmurzenie: W większości pochmurnie
Widoczność: 4 km
Szczegóły dotyczące chmur: Niewiele chmur 3000 ft,
W większości pochmurnie 4000 ft
EPKK 172300Z VRB01KT 3500 BR FEW030 BKN040 M01/M02 Q1021
LKMT - Ostrava
Zaktualizowano: 17-02-2018 23:30
Freezing, Mgła, Całkowite zachmurzenie  
Freezing, Mgła, Całkowite zachmurzenie  
   Wiatr: varies 1.9 km/h
Wiatr: varies 1.9 km/h
Temperatura: -1°C
Punkt rosy: -1°C
Wilgotność: 100%
Ciśnienie: 1022 hPa
Zachmurzenie: Całkowite zachmurzenie
Widoczność: 1 km
Szczegóły dotyczące chmur: Całkowite zachmurzenie 200 ft
LKMT 172230Z VRB01KT 0800 R22/1600N R04/2000N FZFG OVC002 M01/M01 Q1022 R04/590195 NOSIG
LZZI - Žilina
Zaktualizowano: 18-02-2018 00:00
Light Snow, Mgła, Całkowite zachmurzenie  
Light Snow, Mgła, Całkowite zachmurzenie  
   Wiatr: ESE 5.6 km/h
Wiatr: ESE 5.6 km/h
Temperatura: -1°C
Wind Chill: -3°C
Punkt rosy: -1°C
Wilgotność: 100%
Ciśnienie: 1020 hPa
Zachmurzenie: Całkowite zachmurzenie
Widoczność: 4 km
Szczegóły dotyczące chmur: Częściowe Zachmurzenie 1900 ft,
Całkowite zachmurzenie 4300 ft
LZZI 172300Z 11003KT 3500 -SN BR SCT019 OVC043 M01/M01 Q1020
  

Skrypt opracowany przez  Saratoga-weather.org Dostosowany do szablonu przez  Weerstation Leuven